Time;durP1;ratioP1;P1;durP2;ratioP2;P2;SDS_P1;SDS_P2;PMS_P1;PMS_P2;Temp;Humidity;BMP_temperature;BMP_pressure;BME280_temperature;BME280_humidity;BME280_pressure;Samples;Min_cycle;Max_cycle;Signal;HPM_P1;HPM_P2
2021/08/18 00:01:52;;;;;;;9.47;6.63;;;15.90;1.00;;;;;;5082222;28;20215;-53
2021/08/18 00:04:17;;;;;;;9.63;6.30;;;16.00;1.00;;;;;;5082415;28;20481;-55
2021/08/18 00:06:43;;;;;;;9.80;7.27;;;15.90;1.00;;;;;;5072216;28;20183;-54
2021/08/18 00:09:09;;;;;;;8.10;5.93;;;15.90;1.00;;;;;;5084385;28;20200;-54
2021/08/18 00:11:35;;;;;;;11.57;6.83;;;16.00;1.00;;;;;;5089759;28;20539;-55
2021/08/18 00:14:00;;;;;;;9.43;6.13;;;16.10;1.00;;;;;;5081483;28;20211;-54
2021/08/18 00:16:27;;;;;;;8.90;6.53;;;16.00;1.00;;;;;;5083908;28;20186;-54
2021/08/18 00:18:53;;;;;;;8.83;5.73;;;16.00;1.00;;;;;;5086928;28;20234;-52
2021/08/18 00:21:23;;;;;;;9.93;5.73;;;16.10;1.00;;;;;;5077662;28;20471;-52
2021/08/18 00:23:50;;;;;;;9.20;6.30;;;15.90;1.00;;;;;;5090015;28;20901;-52
2021/08/18 00:26:16;;;;;;;9.30;5.90;;;15.80;1.00;;;;;;5076722;28;20438;-52
2021/08/18 00:28:42;;;;;;;8.47;5.37;;;15.70;1.00;;;;;;5083290;28;20491;-54
2021/08/18 00:31:09;;;;;;;6.53;5.73;;;15.80;1.00;;;;;;5086052;28;20937;-54
2021/08/18 00:33:35;;;;;;;8.53;5.57;;;15.90;1.00;;;;;;5088450;28;20472;-54
2021/08/18 00:36:00;;;;;;;5.80;5.13;;;15.80;1.00;;;;;;5091101;28;21381;-54
2021/08/18 00:38:26;;;;;;;9.50;5.97;;;15.80;1.00;;;;;;5079244;28;20187;-55
2021/08/18 00:40:52;;;;;;;8.07;5.43;;;15.70;1.00;;;;;;5090480;28;20214;-55
2021/08/18 00:43:17;;;;;;;9.07;5.33;;;15.60;1.00;;;;;;5091056;28;20190;-53
2021/08/18 00:45:44;;;;;;;6.60;5.47;;;15.60;1.00;;;;;;5090273;28;20197;-53
2021/08/18 00:48:10;;;;;;;8.50;5.70;;;15.70;1.00;;;;;;5087476;28;20201;-52
2021/08/18 00:50:36;;;;;;;7.27;4.80;;;15.60;1.00;;;;;;5085369;28;20472;-53
2021/08/18 00:53:02;;;;;;;8.40;4.77;;;15.70;1.00;;;;;;5075398;28;20460;-54
2021/08/18 00:55:28;;;;;;;6.60;4.97;;;15.80;1.00;;;;;;5091367;28;20428;-54
2021/08/18 00:57:55;;;;;;;6.10;4.80;;;15.80;1.00;;;;;;5076880;28;20445;-55
2021/08/18 01:00:23;;;;;;;8.27;4.93;;;15.70;1.00;;;;;;5080022;28;20190;-53
2021/08/18 01:02:49;;;;;;;6.77;4.47;;;15.60;1.00;;;;;;5083483;28;20499;-53
2021/08/18 01:05:22;;;;;;;5.83;4.80;;;15.60;1.00;;;;;;5078104;28;20452;-53
2021/08/18 01:07:49;;;;;;;7.37;5.03;;;15.60;1.00;;;;;;5078010;28;20465;-52
2021/08/18 01:10:19;;;;;;;7.07;4.63;;;15.60;1.00;;;;;;5076735;28;20480;-56
2021/08/18 01:12:45;;;;;;;9.00;5.03;;;15.60;1.00;;;;;;5076545;28;21188;-55
2021/08/18 01:15:13;;;;;;;7.57;5.70;;;15.50;1.00;;;;;;5075058;28;20473;-52
2021/08/18 01:17:44;;;;;;;8.50;5.47;;;15.50;1.00;;;;;;5075254;28;20507;-52
2021/08/18 01:20:18;;;;;;;6.13;4.80;;;15.50;1.00;;;;;;5087964;28;20449;-55
2021/08/18 01:22:44;;;;;;;8.23;5.40;;;15.50;1.00;;;;;;5089857;28;20482;-52
2021/08/18 01:25:11;;;;;;;8.03;6.00;;;15.50;1.00;;;;;;5078328;28;20437;-55
2021/08/18 01:27:42;;;;;;;8.77;5.43;;;15.40;1.00;;;;;;5088284;28;20190;-53
2021/08/18 01:30:08;;;;;;;7.57;5.43;;;15.30;1.00;;;;;;5084573;28;20510;-55
2021/08/18 01:32:42;;;;;;;7.43;5.63;;;15.30;1.00;;;;;;5081939;28;20574;-53
2021/08/18 01:35:20;;;;;;;8.70;5.40;;;15.30;1.00;;;;;;5090918;28;20521;-55
2021/08/18 01:37:45;;;;;;;6.53;5.43;;;15.30;1.00;;;;;;5071034;28;20502;-54
2021/08/18 01:40:11;;;;;;;7.23;4.73;;;15.40;1.00;;;;;;5071479;28;20434;-53
2021/08/18 01:42:38;;;;;;;8.00;5.13;;;15.30;1.00;;;;;;5088000;28;20194;-55
2021/08/18 01:45:05;;;;;;;7.73;5.47;;;15.30;1.00;;;;;;5090944;28;20747;-53
2021/08/18 01:47:30;;;;;;;8.03;5.80;;;15.30;1.00;;;;;;5090707;28;20429;-53
2021/08/18 01:49:56;;;;;;;9.27;5.77;;;15.30;1.00;;;;;;5076348;28;20484;-53
2021/08/18 01:52:22;;;;;;;6.80;5.13;;;15.20;1.00;;;;;;5070500;28;20196;-55
2021/08/18 01:54:47;;;;;;;8.63;5.10;;;15.20;1.00;;;;;;5071330;28;20601;-54
2021/08/18 01:57:13;;;;;;;8.43;5.67;;;15.20;1.00;;;;;;5076227;28;20518;-51
2021/08/18 01:59:39;;;;;;;6.60;4.90;;;15.20;1.00;;;;;;5075003;28;20191;-54
2021/08/18 02:02:04;;;;;;;6.10;4.63;;;15.20;1.00;;;;;;5074026;28;20203;-54
2021/08/18 02:04:30;;;;;;;6.80;4.97;;;15.30;1.00;;;;;;5073602;28;20190;-52
2021/08/18 02:06:55;;;;;;;6.80;4.90;;;15.30;1.00;;;;;;5077903;28;20248;-54
2021/08/18 02:09:21;;;;;;;7.60;5.40;;;15.30;1.00;;;;;;5079696;28;20190;-54
2021/08/18 02:11:47;;;;;;;7.60;5.70;;;15.20;1.00;;;;;;5076022;28;20514;-54
2021/08/18 02:14:12;;;;;;;6.53;4.70;;;15.20;1.00;;;;;;5074534;28;20214;-54
2021/08/18 02:16:38;;;;;;;6.37;4.57;;;15.30;1.00;;;;;;5081479;28;21003;-54
2021/08/18 02:19:04;;;;;;;6.90;5.03;;;15.20;1.00;;;;;;5079145;28;20253;-52
2021/08/18 02:21:29;;;;;;;7.03;4.87;;;15.10;1.00;;;;;;5078162;28;20268;-55
2021/08/18 02:23:55;;;;;;;7.90;5.60;;;15.10;1.00;;;;;;5089584;28;20224;-54
2021/08/18 02:26:20;;;;;;;7.00;4.70;;;15.10;1.00;;;;;;5094042;28;20579;-53
2021/08/18 02:28:46;;;;;;;8.10;5.50;;;15.10;1.00;;;;;;5084810;28;20560;-52
2021/08/18 02:31:12;;;;;;;6.57;4.97;;;15.00;1.00;;;;;;5085642;28;20206;-56
2021/08/18 02:33:37;;;;;;;7.87;5.30;;;15.10;1.00;;;;;;5094168;28;20316;-55
2021/08/18 02:36:03;;;;;;;7.87;5.43;;;15.00;1.00;;;;;;5092533;28;20261;-53
2021/08/18 02:38:29;;;;;;;8.80;6.17;;;15.00;1.00;;;;;;5094207;28;20224;-54
2021/08/18 02:40:54;;;;;;;7.93;5.43;;;15.10;1.00;;;;;;5089486;28;20233;-53
2021/08/18 02:43:20;;;;;;;7.03;5.03;;;15.00;1.00;;;;;;5073724;28;20210;-53
2021/08/18 02:45:46;;;;;;;6.83;5.17;;;15.00;1.00;;;;;;5079710;28;20186;-54
2021/08/18 02:48:11;;;;;;;10.03;5.87;;;15.00;1.00;;;;;;5093929;28;20210;-55
2021/08/18 02:50:37;;;;;;;7.33;5.10;;;15.10;1.00;;;;;;5077502;28;20190;-54
2021/08/18 02:53:03;;;;;;;6.37;4.90;;;15.00;1.00;;;;;;5078572;28;20201;-53
2021/08/18 02:55:29;;;;;;;7.30;5.03;;;15.10;1.00;;;;;;5093628;28;20415;-54
2021/08/18 02:57:56;;;;;;;8.40;5.70;;;15.00;1.00;;;;;;5093819;28;20264;-53
2021/08/18 03:00:22;;;;;;;9.03;5.53;;;15.10;1.00;;;;;;5093641;28;20218;-56
2021/08/18 03:02:48;;;;;;;8.10;5.30;;;15.20;1.00;;;;;;5091683;28;20483;-55
2021/08/18 03:05:14;;;;;;;7.20;5.53;;;15.30;1.00;;;;;;5090556;28;20225;-53
2021/08/18 03:07:40;;;;;;;8.83;6.00;;;15.40;1.00;;;;;;5082413;28;20810;-54
2021/08/18 03:10:07;;;;;;;8.17;5.00;;;15.50;1.00;;;;;;5073415;28;20187;-53
2021/08/18 03:12:33;;;;;;;9.00;6.03;;;15.60;1.00;;;;;;5086307;28;20521;-53
2021/08/18 03:14:59;;;;;;;9.00;5.23;;;15.70;1.00;;;;;;5092805;28;20472;-53
2021/08/18 03:17:25;;;;;;;8.90;5.20;;;15.70;1.00;;;;;;5092369;28;20524;-54
2021/08/18 03:19:51;;;;;;;7.87;5.60;;;15.70;1.00;;;;;;5082511;28;20183;-53
2021/08/18 03:22:16;;;;;;;7.73;5.47;;;15.70;1.00;;;;;;5085948;28;20814;-53
2021/08/18 03:24:42;;;;;;;6.70;4.80;;;15.70;1.00;;;;;;5093259;28;20243;-54
2021/08/18 03:27:08;;;;;;;7.57;5.17;;;15.80;1.00;;;;;;5093259;28;20339;-53
2021/08/18 03:29:34;;;;;;;8.53;4.97;;;15.80;1.00;;;;;;5087454;28;20309;-54
2021/08/18 03:32:00;;;;;;;7.43;5.60;;;15.90;1.00;;;;;;5091240;28;20540;-54
2021/08/18 03:34:25;;;;;;;7.60;5.80;;;15.90;1.00;;;;;;5090385;28;20213;-52
2021/08/18 03:36:51;;;;;;;8.30;5.47;;;15.90;1.00;;;;;;5079417;28;20187;-55
2021/08/18 03:39:17;;;;;;;6.53;4.93;;;15.90;1.00;;;;;;5080682;28;20258;-52
2021/08/18 03:41:42;;;;;;;7.03;5.00;;;15.90;1.00;;;;;;5080379;28;20221;-53
2021/08/18 03:44:08;;;;;;;6.50;4.83;;;15.90;1.00;;;;;;5074480;28;20943;-52
2021/08/18 03:46:34;;;;;;;9.07;5.27;;;16.00;1.00;;;;;;5084748;28;20525;-53
2021/08/18 03:49:00;;;;;;;10.30;5.00;;;16.10;1.00;;;;;;5091663;28;20202;-55
2021/08/18 03:51:26;;;;;;;7.13;5.77;;;16.20;1.00;;;;;;5072599;28;20191;-53
2021/08/18 03:53:51;;;;;;;8.43;5.43;;;16.20;1.00;;;;;;5078777;28;20494;-54
2021/08/18 03:56:17;;;;;;;11.63;5.93;;;16.20;1.00;;;;;;5090751;28;20191;-55
2021/08/18 03:58:44;;;;;;;7.17;4.70;;;16.30;1.00;;;;;;5080188;28;20269;-56
2021/08/18 04:01:09;;;;;;;7.50;5.27;;;16.10;1.00;;;;;;5072179;28;20191;-50
2021/08/18 04:03:36;;;;;;;7.83;5.60;;;16.30;1.00;;;;;;5072336;28;20937;-55
2021/08/18 04:06:02;;;;;;;6.90;4.20;;;16.30;1.00;;;;;;5073113;28;20183;-54
2021/08/18 04:08:28;;;;;;;6.90;5.10;;;16.30;1.00;;;;;;5070847;28;20434;-56
2021/08/18 04:10:54;;;;;;;6.80;4.63;;;16.20;1.00;;;;;;5072854;28;20880;-53
2021/08/18 04:13:19;;;;;;;6.70;4.60;;;16.10;1.00;;;;;;5072640;28;20240;-53
2021/08/18 04:15:45;;;;;;;6.07;4.43;;;16.20;1.00;;;;;;5072009;28;20192;-54
2021/08/18 04:18:11;;;;;;;6.70;4.70;;;16.30;1.00;;;;;;5089837;28;20258;-55
2021/08/18 04:20:37;;;;;;;5.27;4.23;;;16.40;1.00;;;;;;5076916;28;20518;-53
2021/08/18 04:23:04;;;;;;;7.77;4.77;;;16.40;1.00;;;;;;5070530;28;20669;-54
2021/08/18 04:25:30;;;;;;;6.27;4.63;;;16.30;1.00;;;;;;5071885;28;21762;-56
2021/08/18 04:27:55;;;;;;;8.67;5.87;;;16.30;1.00;;;;;;5071372;28;20846;-52
2021/08/18 04:30:22;;;;;;;8.73;5.63;;;16.30;1.00;;;;;;5071837;28;20458;-53
2021/08/18 04:32:48;;;;;;;5.10;4.60;;;16.40;1.00;;;;;;5071680;28;20191;-54
2021/08/18 04:35:16;;;;;;;5.30;3.77;;;16.50;1.00;;;;;;5072714;28;20461;-52
2021/08/18 04:37:42;;;;;;;5.37;4.40;;;16.50;1.00;;;;;;5091799;28;20436;-54
2021/08/18 04:40:10;;;;;;;5.20;4.23;;;16.50;1.00;;;;;;5091500;28;20432;-54
2021/08/18 04:42:42;;;;;;;6.60;4.00;;;16.60;1.00;;;;;;5075986;28;20434;-55
2021/08/18 04:45:10;;;;;;;6.10;4.10;;;16.60;1.00;;;;;;5071627;28;20438;-54
2021/08/18 04:47:37;;;;;;;6.80;3.83;;;16.60;1.00;;;;;;5070983;28;20437;-53
2021/08/18 04:50:04;;;;;;;4.90;3.87;;;16.60;1.00;;;;;;5069346;28;20445;-55
2021/08/18 04:52:30;;;;;;;6.00;4.17;;;16.80;1.00;;;;;;5070762;28;20447;-53
2021/08/18 04:54:56;;;;;;;4.83;3.83;;;16.80;1.00;;;;;;5070750;28;20493;-55
2021/08/18 04:57:21;;;;;;;5.87;4.13;;;16.90;1.00;;;;;;5070757;28;20429;-53
2021/08/18 04:59:47;;;;;;;6.93;4.10;;;16.90;1.00;;;;;;5070773;28;20266;-53
2021/08/18 05:02:12;;;;;;;7.80;4.30;;;16.90;1.00;;;;;;5070604;28;20233;-54
2021/08/18 05:04:38;;;;;;;5.33;3.70;;;17.00;1.00;;;;;;5070735;28;20228;-52
2021/08/18 05:07:04;;;;;;;6.20;4.47;;;16.90;1.00;;;;;;5070472;28;20179;-54
2021/08/18 05:09:29;;;;;;;4.40;3.53;;;16.90;1.00;;;;;;5070329;28;20218;-54
2021/08/18 05:11:56;;;;;;;3.30;3.00;;;17.10;1.00;;;;;;5074731;28;20190;-54
2021/08/18 05:14:22;;;;;;;5.87;3.27;;;17.10;1.00;;;;;;5070224;28;20231;-53
2021/08/18 05:16:48;;;;;;;3.40;3.10;;;17.10;1.00;;;;;;5070664;28;20824;-55
2021/08/18 05:19:13;;;;;;;6.20;3.23;;;17.10;1.00;;;;;;5070136;28;20203;-52
2021/08/18 05:21:39;;;;;;;5.03;3.50;;;17.20;1.00;;;;;;5069062;28;20432;-54
2021/08/18 05:24:05;;;;;;;4.60;3.67;;;17.20;1.00;;;;;;5072894;28;20571;-55
2021/08/18 05:26:30;;;;;;;5.97;4.13;;;17.20;1.00;;;;;;5080806;28;20191;-55
2021/08/18 05:28:56;;;;;;;3.73;2.90;;;17.30;1.00;;;;;;5073714;28;20429;-54
2021/08/18 05:31:21;;;;;;;5.40;2.70;;;17.40;1.00;;;;;;5083216;28;20312;-52
2021/08/18 05:33:47;;;;;;;7.40;3.80;;;17.30;1.00;;;;;;5087274;28;20217;-56
2021/08/18 05:36:13;;;;;;;5.60;3.50;;;17.40;1.00;;;;;;5070223;28;20175;-54
2021/08/18 05:38:38;;;;;;;5.40;3.63;;;17.40;1.00;;;;;;5069301;28;21506;-52
2021/08/18 05:41:04;;;;;;;7.83;3.03;;;17.40;1.00;;;;;;5070284;28;20188;-52
2021/08/18 05:43:29;;;;;;;4.90;3.30;;;17.50;1.00;;;;;;5069675;28;20199;-53
2021/08/18 05:45:55;;;;;;;7.80;3.37;;;17.60;1.00;;;;;;5080709;28;20225;-54
2021/08/18 05:48:21;;;;;;;3.73;3.40;;;17.60;1.00;;;;;;5082755;28;20599;-54
2021/08/18 05:50:46;;;;;;;4.97;2.90;;;17.70;1.00;;;;;;5079556;28;20633;-53
2021/08/18 05:53:18;;;;;;;5.50;3.93;;;17.70;1.00;;;;;;5071626;28;20187;-54
2021/08/18 05:55:45;;;;;;;4.63;2.90;;;17.60;1.00;;;;;;5070723;28;20183;-54
2021/08/18 05:58:11;;;;;;;4.80;3.10;;;17.60;1.00;;;;;;5086312;28;20429;-54
2021/08/18 06:00:36;;;;;;;6.67;3.30;;;17.60;1.00;;;;;;5071642;28;20456;-54
2021/08/18 06:03:02;;;;;;;4.70;3.50;;;17.60;1.00;;;;;;5076636;28;20256;-52
2021/08/18 06:05:29;;;;;;;6.57;3.73;;;17.60;1.00;;;;;;5077795;28;20262;-52
2021/08/18 06:07:54;;;;;;;7.13;3.93;;;17.70;1.00;;;;;;5076374;28;20178;-54
2021/08/18 06:10:20;;;;;;;7.20;3.77;;;17.70;1.00;;;;;;5089948;28;20790;-55
2021/08/18 06:12:45;;;;;;;4.37;3.27;;;17.80;1.00;;;;;;5088775;28;20201;-53
2021/08/18 06:15:11;;;;;;;5.60;3.50;;;17.80;1.00;;;;;;5077054;28;20296;-56
2021/08/18 06:17:37;;;;;;;5.33;3.50;;;17.80;1.00;;;;;;5073850;28;20256;-52
2021/08/18 06:20:03;;;;;;;5.77;3.70;;;17.80;1.00;;;;;;5082188;28;20656;-54
2021/08/18 06:22:28;;;;;;;4.87;3.63;;;17.90;1.00;;;;;;5088434;28;20219;-53
2021/08/18 06:24:56;;;;;;;3.43;2.97;;;17.80;1.00;;;;;;5088462;28;20429;-53
2021/08/18 06:27:23;;;;;;;6.00;3.90;;;17.80;1.00;;;;;;5085641;28;20186;-54
2021/08/18 06:29:48;;;;;;;5.50;3.50;;;17.90;1.00;;;;;;5090027;28;20903;-54
2021/08/18 06:32:14;;;;;;;6.17;3.10;;;17.90;1.00;;;;;;5090015;28;20520;-52
2021/08/18 06:34:39;;;;;;;7.13;4.00;;;18.20;1.00;;;;;;5082686;28;20207;-51
2021/08/18 06:37:06;;;;;;;4.60;3.30;;;18.30;1.00;;;;;;5089657;28;20209;-53
2021/08/18 06:39:32;;;;;;;4.30;3.40;;;18.30;1.00;;;;;;5088719;28;20603;-53
2021/08/18 06:42:00;;;;;;;4.57;3.70;;;18.40;1.00;;;;;;5088467;28;20429;-55
2021/08/18 06:44:27;;;;;;;4.07;3.67;;;18.50;1.00;;;;;;5089778;28;20655;-52
2021/08/18 06:46:52;;;;;;;3.33;2.50;;;18.60;1.00;;;;;;5089905;28;20501;-53
2021/08/18 06:49:18;;;;;;;3.50;2.87;;;18.80;1.00;;;;;;5089301;28;20444;-52
2021/08/18 06:51:43;;;;;;;10.07;3.70;;;18.80;1.00;;;;;;5092865;28;20643;-54
2021/08/18 06:54:09;;;;;;;3.13;2.83;;;18.90;1.00;;;;;;5093007;28;20611;-53
2021/08/18 06:56:35;;;;;;;5.23;3.00;;;18.90;1.00;;;;;;5093319;28;20175;-55
2021/08/18 06:59:00;;;;;;;3.93;3.20;;;19.10;1.00;;;;;;5093073;28;20437;-52
2021/08/18 07:01:26;;;;;;;6.37;3.10;;;19.20;1.00;;;;;;5093179;28;20784;-53
2021/08/18 07:03:51;;;;;;;4.40;3.03;;;19.30;1.00;;;;;;5087582;28;20185;-53
2021/08/18 07:06:17;;;;;;;2.70;2.50;;;19.50;1.00;;;;;;5092861;28;20390;-55
2021/08/18 07:08:42;;;;;;;5.37;2.87;;;19.40;1.00;;;;;;5092874;28;20335;-53
2021/08/18 07:11:08;;;;;;;3.40;2.53;;;19.30;1.00;;;;;;5083629;28;20187;-56
2021/08/18 07:13:34;;;;;;;3.80;3.13;;;19.10;1.00;;;;;;5089877;28;20440;-53
2021/08/18 07:15:59;;;;;;;3.23;2.70;;;19.20;1.00;;;;;;5092927;28;20186;-55
2021/08/18 07:18:25;;;;;;;3.10;2.30;;;19.20;1.00;;;;;;5089436;28;20308;-52
2021/08/18 07:20:51;;;;;;;5.03;2.63;;;18.90;1.00;;;;;;5079521;28;20224;-53
2021/08/18 07:23:17;;;;;;;3.30;2.43;;;18.80;1.00;;;;;;5072478;28;20176;-53
2021/08/18 07:25:43;;;;;;;6.43;3.13;;;19.00;1.00;;;;;;5092771;28;20516;-53
2021/08/18 07:28:08;;;;;;;3.97;2.47;;;19.00;1.00;;;;;;5092739;28;20444;-54
2021/08/18 07:30:34;;;;;;;3.10;2.70;;;19.20;1.00;;;;;;5072425;28;20495;-52
2021/08/18 07:32:59;;;;;;;6.47;3.43;;;19.40;1.00;;;;;;5077723;28;20187;-51
2021/08/18 07:35:25;;;;;;;3.80;2.73;;;19.70;1.00;;;;;;5092146;28;20710;-53
2021/08/18 07:37:51;;;;;;;2.90;2.60;;;19.80;1.00;;;;;;5092282;28;20171;-54
2021/08/18 07:40:17;;;;;;;2.50;2.30;;;19.90;1.00;;;;;;5092018;28;20255;-54
2021/08/18 07:42:43;;;;;;;2.37;2.17;;;19.80;1.00;;;;;;5092277;28;20214;-52
2021/08/18 07:45:09;;;;;;;5.43;2.87;;;19.80;1.00;;;;;;5092330;28;20554;-54
2021/08/18 07:47:35;;;;;;;2.80;2.40;;;19.80;1.00;;;;;;5091996;28;20288;-54
2021/08/18 07:50:02;;;;;;;4.40;2.97;;;22.30;1.00;;;;;;5077393;28;20455;-52
2021/08/18 07:52:27;;;;;;;2.27;2.07;;;20.00;1.00;;;;;;5077386;28;20468;-55
2021/08/18 07:54:53;;;;;;;3.40;2.70;;;20.10;1.00;;;;;;5082713;28;20496;-55
2021/08/18 07:57:19;;;;;;;2.73;2.17;;;20.20;1.00;;;;;;5071831;28;20526;-53
2021/08/18 07:59:44;;;;;;;4.57;2.10;;;20.40;1.00;;;;;;5072014;28;20182;-53
2021/08/18 08:02:10;;;;;;;3.00;2.23;;;20.40;1.00;;;;;;5070735;28;20445;-53
2021/08/18 08:04:35;;;;;;;2.70;1.87;;;20.40;1.00;;;;;;5088053;28;20636;-54
2021/08/18 08:07:01;;;;;;;3.57;2.30;;;20.50;1.00;;;;;;5090388;28;20178;-54
2021/08/18 08:09:26;;;;;;;2.67;2.47;;;20.60;1.00;;;;;;5091754;28;20536;-53
2021/08/18 08:11:53;;;;;;;1.60;1.47;;;20.70;1.00;;;;;;5091712;28;20647;-53
2021/08/18 08:14:19;;;;;;;3.47;2.27;;;20.40;1.00;;;;;;5091467;28;20658;-53
2021/08/18 08:16:44;;;;;;;2.77;1.80;;;19.20;1.00;;;;;;5090860;28;20521;-53
2021/08/18 08:19:10;;;;;;;2.87;1.80;;;20.30;1.00;;;;;;5091063;28;20687;-55
2021/08/18 08:21:36;;;;;;;2.00;1.77;;;20.40;1.00;;;;;;5091480;28;20179;-54
2021/08/18 08:24:01;;;;;;;1.80;1.70;;;20.70;1.00;;;;;;5090048;28;20179;-52
2021/08/18 08:26:28;;;;;;;2.33;1.60;;;20.80;1.00;;;;;;5091374;28;20192;-53
2021/08/18 08:28:54;;;;;;;2.50;1.40;;;20.80;1.00;;;;;;5091244;28;20213;-52
2021/08/18 08:31:21;;;;;;;1.60;1.50;;;20.80;1.00;;;;;;5091126;28;20454;-52
2021/08/18 08:33:46;;;;;;;2.00;1.80;;;20.80;1.00;;;;;;5077349;28;20468;-53
2021/08/18 08:36:12;;;;;;;1.40;1.30;;;20.80;1.00;;;;;;5071124;28;20660;-57
2021/08/18 08:38:37;;;;;;;1.93;1.63;;;20.90;1.00;;;;;;5070761;28;20225;-58
2021/08/18 08:41:06;;;;;;;2.77;2.00;;;20.90;1.00;;;;;;5070601;28;20257;-57
2021/08/18 08:43:31;;;;;;;1.97;1.40;;;20.80;1.00;;;;;;5070809;28;20590;-58
2021/08/18 08:45:57;;;;;;;1.90;1.60;;;20.40;1.00;;;;;;5070523;28;20530;-58
2021/08/18 08:48:22;;;;;;;1.83;1.40;;;20.20;1.00;;;;;;5070641;28;20191;-57
2021/08/18 08:50:49;;;;;;;2.13;1.50;;;20.10;1.00;;;;;;5070661;28;20177;-58
2021/08/18 08:53:15;;;;;;;1.73;1.40;;;20.20;1.00;;;;;;5088233;28;20536;-58
2021/08/18 08:55:41;;;;;;;1.90;1.63;;;19.90;1.00;;;;;;5090969;28;20441;-57
2021/08/18 08:58:07;;;;;;;2.03;1.60;;;19.70;1.00;;;;;;5091022;28;20419;-58
2021/08/18 09:00:33;;;;;;;1.77;1.60;;;19.90;1.00;;;;;;5090602;28;20418;-56
2021/08/18 09:03:15;;;;;;;1.50;1.17;;;19.80;1.00;;;;;;5089583;28;20195;-57
2021/08/18 09:05:42;;;;;;;1.80;1.40;;;20.10;1.00;;;;;;5091124;28;20176;-58
2021/08/18 09:08:10;;;;;;;1.50;1.30;;;19.90;1.00;;;;;;5086266;28;20416;-57
2021/08/18 09:10:36;;;;;;;1.50;1.40;;;19.70;1.00;;;;;;5090351;28;20452;-57
2021/08/18 09:13:14;;;;;;;1.63;1.53;;;19.70;1.00;;;;;;5089756;28;20428;-57
2021/08/18 09:15:41;;;;;;;2.50;1.50;;;19.90;1.00;;;;;;5090340;28;20182;-58
2021/08/18 09:18:07;;;;;;;1.73;1.40;;;20.40;1.00;;;;;;5090214;28;20785;-57
2021/08/18 09:20:38;;;;;;;1.50;1.40;;;20.50;1.00;;;;;;5090532;28;20407;-57
2021/08/18 09:23:04;;;;;;;2.27;1.60;;;20.30;1.00;;;;;;5090563;28;20874;-57
2021/08/18 09:25:35;;;;;;;2.23;1.30;;;20.20;1.00;;;;;;5090388;28;20527;-58
2021/08/18 09:28:04;;;;;;;1.97;1.70;;;20.30;1.00;;;;;;5081974;28;20660;-58
2021/08/18 09:30:34;;;;;;;2.63;1.87;;;20.50;1.00;;;;;;5070291;28;20453;-58
2021/08/18 09:33:06;;;;;;;2.37;1.50;;;20.50;1.00;;;;;;5086571;28;20439;-58
2021/08/18 09:35:32;;;;;;;3.03;1.80;;;20.60;1.00;;;;;;5070101;28;20982;-57
2021/08/18 09:38:12;;;;;;;5.10;2.10;;;20.50;1.00;;;;;;5069952;28;20419;-58
2021/08/18 09:40:49;;;;;;;2.53;2.17;;;20.60;1.00;;;;;;5070330;28;20179;-59
2021/08/18 09:43:21;;;;;;;2.50;1.87;;;20.70;1.00;;;;;;5071356;28;20772;-57
2021/08/18 09:45:53;;;;;;;1.87;1.73;;;21.00;1.00;;;;;;5087858;28;20589;-57
2021/08/18 09:48:19;;;;;;;2.07;1.70;;;21.30;1.00;;;;;;5090156;28;20961;-59
2021/08/18 09:50:57;;;;;;;2.30;2.03;;;21.50;1.00;;;;;;5090215;28;20436;-58
2021/08/18 09:53:25;;;;;;;2.10;1.67;;;21.50;1.00;;;;;;5089977;28;20411;-58
2021/08/18 09:56:11;;;;;;;2.07;1.90;;;21.60;1.00;;;;;;5090362;28;20444;-57
2021/08/18 09:58:46;;;;;;;4.20;1.77;;;21.40;1.00;;;;;;5090000;28;20438;-58
2021/08/18 10:01:14;;;;;;;2.30;1.63;;;21.20;1.00;;;;;;5090086;28;20775;-57
2021/08/18 10:03:52;;;;;;;1.80;1.40;;;21.40;1.00;;;;;;5089435;28;20930;-58
2021/08/18 10:06:18;;;;;;;1.43;1.30;;;21.30;1.00;;;;;;5090224;28;20915;-58
2021/08/18 10:08:46;;;;;;;1.50;1.40;;;21.50;1.00;;;;;;5090270;28;20900;-58
2021/08/18 10:11:14;;;;;;;1.90;1.53;;;21.90;1.00;;;;;;5089641;28;20447;-58
2021/08/18 10:13:41;;;;;;;2.20;1.70;;;22.20;1.00;;;;;;5089984;28;20446;-57
2021/08/18 10:16:08;;;;;;;2.60;1.10;;;22.70;1.00;;;;;;5090056;28;20495;-57
2021/08/18 10:18:37;;;;;;;1.87;1.07;;;22.60;1.00;;;;;;5089531;28;20467;-58
2021/08/18 10:21:27;;;;;;;1.40;1.23;;;22.20;1.00;;;;;;5089708;28;20508;-59
2021/08/18 10:24:07;;;;;;;1.93;1.40;;;22.20;1.00;;;;;;5077494;28;20448;-58
2021/08/18 10:29:16;;;;;;;3.03;1.07;;;21.90;1.00;;;;;;5093756;28;20411;-59
2021/08/18 10:31:42;;;;;;;3.50;1.63;;;21.90;1.00;;;;;;5093811;28;20223;-59
2021/08/18 10:34:09;;;;;;;1.27;1.17;;;22.00;1.00;;;;;;5093728;28;20993;-59
2021/08/18 10:36:48;;;;;;;1.33;1.00;;;22.20;1.00;;;;;;5093411;28;20269;-59
2021/08/18 10:39:22;;;;;;;1.87;1.00;;;24.20;1.00;;;;;;5093790;28;20504;-58
2021/08/18 10:42:09;;;;;;;1.27;1.07;;;22.50;1.00;;;;;;5093720;28;20820;-59
2021/08/18 10:44:48;;;;;;;2.87;1.17;;;22.50;1.00;;;;;;5093836;28;20444;-59
2021/08/18 10:47:23;;;;;;;2.00;1.07;;;22.40;1.00;;;;;;5093401;28;20535;-59
2021/08/18 10:49:54;;;;;;;2.40;0.90;;;22.40;1.00;;;;;;5093245;28;20973;-59
2021/08/18 10:52:28;;;;;;;1.53;0.80;;;22.20;1.00;;;;;;5092200;28;20469;-60
2021/08/18 10:55:11;;;;;;;1.20;1.10;;;21.60;1.00;;;;;;5090980;28;20910;-60
2021/08/18 10:57:40;;;;;;;2.00;1.90;;;21.00;1.00;;;;;;5076946;28;20522;-61
2021/08/18 11:00:23;;;;;;;1.60;1.50;;;20.10;1.00;;;;;;5071751;28;20437;-60
2021/08/18 11:02:56;;;;;;;1.80;1.63;;;19.80;1.00;;;;;;5073229;28;20429;-60
2021/08/18 11:05:27;;;;;;;1.93;1.83;;;19.60;1.00;;;;;;5073024;28;20425;-61
2021/08/18 11:08:11;;;;;;;2.07;1.80;;;19.70;1.00;;;;;;5072819;28;20442;-60
2021/08/18 11:10:56;;;;;;;1.60;1.50;;;20.10;1.00;;;;;;5072622;28;20989;-60
2021/08/18 11:13:47;;;;;;;1.90;1.60;;;20.50;1.00;;;;;;5068629;28;20449;-61
2021/08/18 11:16:14;;;;;;;1.40;1.30;;;21.10;1.00;;;;;;5074450;28;20760;-60
2021/08/18 11:18:53;;;;;;;1.80;1.70;;;21.40;1.00;;;;;;5072039;28;20464;-61
2021/08/18 11:21:22;;;;;;;1.37;1.27;;;21.40;1.00;;;;;;5072703;28;20515;-59
2021/08/18 11:23:50;;;;;;;2.03;1.73;;;21.60;1.00;;;;;;5090934;28;21029;-60
2021/08/18 11:26:22;;;;;;;1.60;1.50;;;21.80;1.00;;;;;;5092572;28;20950;-60
2021/08/18 11:29:05;;;;;;;2.07;1.50;;;22.10;1.00;;;;;;5092349;28;20437;-61
2021/08/18 11:31:36;;;;;;;1.77;1.60;;;22.30;1.00;;;;;;5072352;28;20403;-61
2021/08/18 11:34:02;;;;;;;1.73;1.60;;;22.60;1.00;;;;;;5072314;28;20436;-60
2021/08/18 11:36:33;;;;;;;1.90;1.70;;;23.00;1.00;;;;;;5071490;28;20444;-61
2021/08/18 11:39:00;;;;;;;1.93;1.77;;;22.90;1.00;;;;;;5071146;28;20409;-61
2021/08/18 11:41:40;;;;;;;1.50;1.40;;;22.90;1.00;;;;;;5072288;28;20437;-61
2021/08/18 11:44:07;;;;;;;3.97;1.40;;;22.40;1.00;;;;;;5088319;28;20432;-61
2021/08/18 11:46:32;;;;;;;1.90;1.57;;;22.60;1.00;;;;;;5090999;28;20445;-62
2021/08/18 11:49:06;;;;;;;2.00;1.40;;;22.70;1.00;;;;;;5092060;28;20535;-61
2021/08/18 11:51:32;;;;;;;2.07;1.50;;;22.50;1.00;;;;;;5092114;28;20186;-60
2021/08/18 11:53:57;;;;;;;2.83;1.77;;;22.40;1.00;;;;;;5091516;28;20571;-61
2021/08/18 11:56:25;;;;;;;2.40;1.90;;;22.60;1.00;;;;;;5091744;28;20182;-61
2021/08/18 11:59:00;;;;;;;1.40;1.30;;;22.80;1.00;;;;;;5092112;28;20178;-61
2021/08/18 12:01:25;;;;;;;1.77;1.60;;;22.70;1.00;;;;;;5092089;28;20904;-62
2021/08/18 12:03:52;;;;;;;2.17;1.43;;;22.40;1.00;;;;;;5085366;28;20540;-63
2021/08/18 12:06:29;;;;;;;2.00;1.80;;;22.00;1.00;;;;;;5071805;28;20524;-62
2021/08/18 12:08:55;;;;;;;2.37;1.37;;;21.70;1.00;;;;;;5071585;28;21029;-61
2021/08/18 12:11:33;;;;;;;2.03;1.77;;;21.70;1.00;;;;;;5075489;28;20437;-61
2021/08/18 12:14:09;;;;;;;1.50;1.37;;;21.50;1.00;;;;;;5091357;28;20202;-60
2021/08/18 12:16:34;;;;;;;1.70;1.60;;;21.60;1.00;;;;;;5091549;28;20428;-61
2021/08/18 12:19:26;;;;;;;1.73;1.50;;;21.60;1.00;;;;;;5091309;28;20928;-60
2021/08/18 12:22:05;;;;;;;2.27;1.60;;;21.60;1.00;;;;;;5085301;28;20271;-61
2021/08/18 12:24:31;;;;;;;3.40;1.70;;;21.60;1.00;;;;;;5081691;28;20442;-61
2021/08/18 12:27:02;;;;;;;1.53;1.43;;;21.80;1.00;;;;;;5078957;28;20445;-62
2021/08/18 12:29:29;;;;;;;1.93;1.60;;;21.90;1.00;;;;;;5087757;28;20403;-61
2021/08/18 12:32:05;;;;;;;2.60;1.83;;;22.20;1.00;;;;;;5091530;28;20428;-62
2021/08/18 12:34:56;;;;;;;1.70;1.60;;;22.60;1.00;;;;;;5091184;28;20478;-61
2021/08/18 12:37:25;;;;;;;2.17;1.47;;;23.30;1.00;;;;;;5090838;28;20436;-62
2021/08/18 12:40:03;;;;;;;1.50;1.40;;;23.70;1.00;;;;;;5091051;28;20440;-61
2021/08/18 12:42:43;;;;;;;1.30;1.07;;;23.40;1.00;;;;;;5089691;28;20433;-61
2021/08/18 12:45:12;;;;;;;1.40;1.20;;;23.00;1.00;;;;;;5090766;28;20465;-61
2021/08/18 12:47:40;;;;;;;1.17;1.03;;;22.60;1.00;;;;;;5090770;28;20433;-60
2021/08/18 12:50:28;;;;;;;1.20;1.10;;;22.20;1.00;;;;;;5090872;28;20437;-61
2021/08/18 12:52:54;;;;;;;2.47;1.17;;;22.00;1.00;;;;;;5090178;28;20433;-61
2021/08/18 12:55:20;;;;;;;1.60;1.00;;;21.70;1.00;;;;;;5089901;28;20427;-62
2021/08/18 12:57:46;;;;;;;2.43;1.30;;;21.40;1.00;;;;;;5090561;28;20509;-61
2021/08/18 13:00:12;;;;;;;1.83;1.30;;;21.20;1.00;;;;;;5091189;28;20186;-61
2021/08/18 13:02:38;;;;;;;1.67;0.83;;;20.90;1.00;;;;;;5090740;28;20190;-61
2021/08/18 13:05:05;;;;;;;1.53;0.77;;;20.60;1.00;;;;;;5090519;28;20486;-61